Terminal Aerodrome Forecast
Issued by NWS Louisville, KY

Home | Current Version | Previous Version | Text Only | Print | Product List | Glossary On
Versions: 1 2 3 4 5 6 7 8 9 10 11 12 13 14 15
000
FTUS43 KLMK 220257 AAA
TAFLEX
TAF AMD
KLEX 220257Z 2203/2224 03012KT P6SM VCSH OVC007
     FM220800 05011KT 4SM SHRA OVC008
     FM221000 05011KT 2SM SHRA OVC008 WS020/21045KT
     FM221300 04007KT 6SM -SHRA OVC006=

USA.gov is the U.S. government's official web portal to all federal, state and local government web resources and services.